createdAt,value
2023-02-14T00:00:49.020Z,100200.41
2023-02-14T00:03:16.087Z,100201.94
2023-02-14T00:05:42.779Z,100194.72
2023-02-14T00:08:09.462Z,100198.09
2023-02-14T00:10:36.141Z,100196.28
2023-02-14T00:13:03.324Z,100198.88
2023-02-14T00:15:30.023Z,100197.03
2023-02-14T00:17:59.871Z,100203.97
2023-02-14T00:20:28.181Z,100201.31
2023-02-14T00:22:55.146Z,100201.38
2023-02-14T00:25:22.135Z,100200.41
2023-02-14T00:27:48.916Z,100192.34
2023-02-14T00:30:15.777Z,100200.09
2023-02-14T00:32:43.205Z,100196.47
2023-02-14T00:35:10.976Z,100196.31
2023-02-14T00:37:40.990Z,100190.94
2023-02-14T00:40:08.704Z,100192.66
2023-02-14T00:42:35.521Z,100195.34
2023-02-14T00:45:02.129Z,100199.75
2023-02-14T00:47:28.751Z,100196.25
2023-02-14T00:49:55.381Z,100196.94
2023-02-14T00:52:22.052Z,100186.44
2023-02-14T00:54:49.278Z,100185.69
2023-02-14T00:57:15.894Z,100183.06
2023-02-14T00:59:42.671Z,100179.59
2023-02-14T01:02:09.484Z,100179.47
2023-02-14T01:04:36.201Z,100183.75
2023-02-14T01:07:03.357Z,100183.75
2023-02-14T01:09:30.078Z,100172.28
2023-02-14T01:11:56.698Z,100177.53
2023-02-14T01:14:23.285Z,100180.97
2023-02-14T01:16:50.139Z,100183.53
2023-02-14T01:19:17.015Z,100181.75
2023-02-14T01:21:43.862Z,100181.59
2023-02-14T01:24:12.491Z,100181.59
2023-02-14T01:26:41.282Z,100185.13
2023-02-14T01:29:09.171Z,100181.00
2023-02-14T01:31:36.462Z,100183.75
2023-02-14T01:34:04.120Z,100191.56
2023-02-14T01:36:33.924Z,100188.09
2023-02-14T01:39:04.556Z,100181.88
2023-02-14T01:41:34.524Z,100179.97
2023-02-14T01:44:15.388Z,100182.34
2023-02-14T01:46:43.984Z,100182.31
2023-02-14T01:49:27.413Z,100175.31
2023-02-14T01:52:04.113Z,100173.66
2023-02-14T01:54:33.120Z,100170.28
2023-02-14T01:57:05.354Z,100171.09
2023-02-14T01:59:36.713Z,100169.16
2023-02-14T02:02:04.816Z,100168.91
2023-02-14T02:04:41.283Z,100171.44
2023-02-14T02:07:12.513Z,100171.50
2023-02-14T02:09:51.419Z,100171.50
2023-02-14T02:12:18.362Z,100173.38
2023-02-14T02:14:45.530Z,100166.47
2023-02-14T02:17:39.719Z,100161.16
2023-02-14T02:20:52.876Z,100166.34
2023-02-14T02:23:48.405Z,100164.47
2023-02-14T02:26:43.113Z,100166.09
2023-02-14T02:29:32.025Z,100167.69
2023-02-14T02:32:27.763Z,100171.13
2023-02-14T02:35:25.177Z,100171.88
2023-02-14T02:38:14.890Z,100172.78
2023-02-14T02:40:51.955Z,100170.19
2023-02-14T02:43:21.395Z,100166.72
2023-02-14T02:46:17.498Z,100169.28
2023-02-14T02:49:01.407Z,100164.69
2023-02-14T02:51:55.987Z,100160.44
2023-02-14T02:54:46.527Z,100164.50
2023-02-14T02:57:21.875Z,100167.84
2023-02-14T02:59:52.090Z,100165.84
2023-02-14T03:02:28.272Z,100172.69
2023-02-14T03:04:58.594Z,100169.94
2023-02-14T03:07:39.262Z,100169.03
2023-02-14T03:10:25.195Z,100172.50
2023-02-14T03:13:20.357Z,100176.06
2023-02-14T03:16:06.627Z,100172.63
2023-02-14T03:19:01.291Z,100163.13
2023-02-14T03:21:54.526Z,100161.50
2023-02-14T03:24:39.114Z,100162.31
2023-02-14T03:27:15.113Z,100168.53
2023-02-14T03:29:58.792Z,100158.13
2023-02-14T03:32:39.561Z,100164.41
2023-02-14T03:35:12.384Z,100155.72
2023-02-14T03:37:46.132Z,100155.72
2023-02-14T03:40:21.559Z,100159.19
2023-02-14T03:43:02.686Z,100157.44
2023-02-14T03:45:41.864Z,100160.97
2023-02-14T03:48:13.081Z,100156.75
2023-02-14T03:50:43.882Z,100158.59
2023-02-14T03:53:12.745Z,100157.91
2023-02-14T03:56:10.747Z,100149.06
2023-02-14T03:58:40.401Z,100153.47
2023-02-14T04:01:34.352Z,100153.53
2023-02-14T04:04:02.969Z,100157.06
2023-02-14T04:06:29.709Z,100151.88
2023-02-14T04:08:56.386Z,100153.63
2023-02-14T04:11:24.511Z,100158.78
2023-02-14T04:13:51.356Z,100161.50
2023-02-14T04:16:18.064Z,100159.00
2023-02-14T04:19:03.336Z,100163.28
2023-02-14T04:21:29.990Z,100162.38
2023-02-14T04:23:56.618Z,100174.63
2023-02-14T04:26:23.271Z,100178.22
2023-02-14T04:28:49.885Z,100166.81
2023-02-14T04:31:17.437Z,100169.47
2023-02-14T04:33:45.990Z,100161.47
2023-02-14T04:36:12.664Z,100171.97
2023-02-14T04:38:39.717Z,100164.84
2023-02-14T04:41:06.513Z,100163.97
2023-02-14T04:43:33.201Z,100160.44
2023-02-14T04:45:59.888Z,100165.59
2023-02-14T04:48:26.538Z,100165.47
2023-02-14T04:50:54.641Z,100167.09
2023-02-14T04:53:21.742Z,100165.31
2023-02-14T04:55:49.834Z,100161.81
2023-02-14T04:58:17.043Z,100165.16
2023-02-14T05:00:43.763Z,100160.56
2023-02-14T05:03:10.435Z,100148.38
2023-02-14T05:05:37.114Z,100151.00
2023-02-14T05:08:03.775Z,100157.06
2023-02-14T05:10:30.447Z,100152.66
2023-02-14T05:12:57.097Z,100157.97
2023-02-14T05:15:23.702Z,100158.84
2023-02-14T05:17:50.290Z,100154.38
2023-02-14T05:20:17.085Z,100156.00
2023-02-14T05:22:43.729Z,100166.09
2023-02-14T05:25:10.437Z,100155.63
2023-02-14T05:27:37.115Z,100151.50
2023-02-14T05:30:07.182Z,100144.56
2023-02-14T05:32:33.909Z,100154.78
2023-02-14T05:35:01.313Z,100154.94
2023-02-14T05:37:28.185Z,100150.47
2023-02-14T05:39:54.830Z,100156.66
2023-02-14T05:42:21.725Z,100162.56
2023-02-14T05:44:49.065Z,100152.13
2023-02-14T05:47:15.807Z,100161.84
2023-02-14T05:49:42.439Z,100154.06
2023-02-14T05:52:09.810Z,100156.69
2023-02-14T05:54:36.672Z,100155.81
2023-02-14T05:57:03.429Z,100157.41
2023-02-14T05:59:30.040Z,100154.13
2023-02-14T06:01:56.684Z,100154.06
2023-02-14T06:04:23.396Z,100150.56
2023-02-14T06:06:50.081Z,100156.78
2023-02-14T06:09:16.767Z,100150.72
2023-02-14T06:11:43.384Z,100148.16
2023-02-14T06:14:10.051Z,100152.50
2023-02-14T06:16:36.818Z,100152.44
2023-02-14T06:19:03.536Z,100153.19
2023-02-14T06:21:30.589Z,100159.22
2023-02-14T06:23:57.296Z,100163.66
2023-02-14T06:26:27.789Z,100158.41
2023-02-14T06:28:59.041Z,100168.06
2023-02-14T06:31:26.193Z,100161.09
2023-02-14T06:33:53.922Z,100163.63
2023-02-14T06:36:21.720Z,100161.94
2023-02-14T06:38:49.356Z,100168.78
2023-02-14T06:41:19.654Z,100173.16
2023-02-14T06:43:50.545Z,100175.91
2023-02-14T06:46:18.847Z,100173.13
2023-02-14T06:48:46.037Z,100180.91
2023-02-14T06:51:13.138Z,100182.72
2023-02-14T06:53:40.429Z,100180.03
2023-02-14T06:56:07.552Z,100186.88
2023-02-14T06:58:34.382Z,100181.09
2023-02-14T07:01:01.613Z,100172.84
2023-02-14T07:03:28.899Z,100173.06
2023-02-14T07:05:57.966Z,100167.75
2023-02-14T07:08:26.229Z,100160.19
2023-02-14T07:10:57.607Z,100167.81
2023-02-14T07:13:25.398Z,100167.91
2023-02-14T07:15:52.288Z,100157.41
2023-02-14T07:18:19.123Z,100160.97
2023-02-14T07:20:46.036Z,100171.94
2023-02-14T07:23:12.836Z,100165.41
2023-02-14T07:25:40.732Z,100167.47
2023-02-14T07:28:07.744Z,100165.41
2023-02-14T07:30:34.869Z,100168.59
2023-02-14T07:33:01.714Z,100168.41
2023-02-14T07:35:28.541Z,100174.38
2023-02-14T07:37:55.357Z,100175.88
2023-02-14T07:40:22.086Z,100170.25
2023-02-14T07:42:55.982Z,100176.47
2023-02-14T07:45:24.070Z,100165.13
2023-02-14T07:47:52.704Z,100161.09
2023-02-14T07:50:20.002Z,100159.81
2023-02-14T07:52:47.254Z,100153.28
2023-02-14T07:55:13.933Z,100153.69
2023-02-14T07:57:40.580Z,100147.34
2023-02-14T08:00:08.052Z,100153.22
2023-02-14T08:02:38.687Z,100147.50
2023-02-14T08:05:05.709Z,100135.59
2023-02-14T08:07:32.363Z,100134.78
2023-02-14T08:09:59.059Z,100129.53
2023-02-14T08:12:47.306Z,100127.78
2023-02-14T08:15:32.783Z,100126.16
2023-02-14T08:17:59.475Z,100120.84
2023-02-14T08:20:26.200Z,100127.84
2023-02-14T08:22:52.845Z,100127.59
2023-02-14T08:25:19.462Z,100120.09
2023-02-14T08:27:46.061Z,100106.97
2023-02-14T08:30:13.289Z,100111.41
2023-02-14T08:32:40.072Z,100107.81
2023-02-14T08:35:07.563Z,100106.00
2023-02-14T08:37:34.180Z,100107.81
2023-02-14T08:40:00.854Z,100102.56
2023-02-14T08:42:27.556Z,100098.97
2023-02-14T08:44:54.114Z,100104.31
2023-02-14T08:47:21.165Z,100100.63
2023-02-14T08:49:47.856Z,100093.38
2023-02-14T08:52:14.453Z,100076.31
2023-02-14T08:54:41.069Z,100063.97
2023-02-14T08:57:07.782Z,100058.22
2023-02-14T08:59:34.491Z,100064.16
2023-02-14T09:02:01.141Z,100076.28
2023-02-14T09:04:27.925Z,100084.84
2023-02-14T09:06:54.692Z,100075.56
2023-02-14T09:09:21.342Z,100080.06
2023-02-14T09:11:48.003Z,100082.34
2023-02-14T09:14:17.305Z,100079.00
2023-02-14T09:16:44.076Z,100069.97
2023-02-14T09:19:11.427Z,100077.06
2023-02-14T09:21:38.141Z,100066.56
2023-02-14T09:24:04.838Z,100069.03
2023-02-14T09:26:32.548Z,100049.00
2023-02-14T09:28:59.207Z,100049.84
2023-02-14T09:31:25.963Z,100053.53
2023-02-14T09:33:52.814Z,100041.63
2023-02-14T09:36:37.905Z,100043.22
2023-02-14T09:39:04.839Z,100049.13
2023-02-14T09:42:00.716Z,100060.56
2023-02-14T09:44:34.256Z,100054.16
2023-02-14T09:47:18.839Z,100052.00
2023-02-14T09:49:47.258Z,100038.97
2023-02-14T09:52:18.603Z,100043.31
2023-02-14T09:54:51.110Z,100044.13
2023-02-14T09:57:31.615Z,100039.84
2023-02-14T10:00:14.524Z,100053.47
2023-02-14T10:03:09.239Z,100050.66
2023-02-14T10:06:06.247Z,100052.06
2023-02-14T10:08:54.798Z,100055.00
2023-02-14T10:11:24.833Z,100055.66
2023-02-14T10:14:05.173Z,100054.13
2023-02-14T10:16:36.776Z,100056.88
2023-02-14T10:19:19.736Z,100058.59
2023-02-14T10:22:03.814Z,100053.91
2023-02-14T10:24:37.431Z,100054.91
2023-02-14T10:27:30.886Z,100058.69
2023-02-14T10:29:57.600Z,100064.28
2023-02-14T10:32:37.714Z,100054.22
2023-02-14T10:35:26.851Z,100052.06
2023-02-14T10:38:17.264Z,100044.34
2023-02-14T10:41:13.381Z,100046.72
2023-02-14T10:43:49.266Z,100049.03
2023-02-14T10:46:33.195Z,100044.16
2023-02-14T10:49:15.025Z,100045.03
2023-02-14T10:51:49.377Z,100030.88
2023-02-14T10:54:19.048Z,100037.47
2023-02-14T10:57:06.733Z,100021.56
2023-02-14T10:59:39.236Z,100026.81
2023-02-14T11:02:09.142Z,100016.56
2023-02-14T11:04:35.952Z,100020.72
2023-02-14T11:07:02.612Z,100025.94
2023-02-14T11:09:29.330Z,100024.69
2023-02-14T11:12:00.075Z,100012.44
2023-02-14T11:14:31.486Z,100016.22
2023-02-14T11:16:59.431Z,100012.75
2023-02-14T11:19:37.176Z,100002.16
2023-02-14T11:22:04.632Z,100000.44
2023-02-14T11:24:36.878Z,99989.38
2023-02-14T11:27:12.592Z,99988.16
2023-02-14T11:29:39.269Z,99978.31
2023-02-14T11:32:25.362Z,99976.69
2023-02-14T11:35:18.912Z,99971.88
2023-02-14T11:37:54.312Z,99969.94
2023-02-14T11:40:30.603Z,99974.16
2023-02-14T11:43:13.357Z,99960.78
2023-02-14T11:45:47.276Z,99957.50
2023-02-14T11:48:37.659Z,99953.94
2023-02-14T11:51:14.641Z,99958.19
2023-02-14T11:53:48.992Z,99953.66
2023-02-14T11:56:17.867Z,99935.31
2023-02-14T11:58:44.448Z,99935.34
2023-02-14T12:01:25.710Z,99915.47
2023-02-14T12:03:55.497Z,99916.16
2023-02-14T12:06:25.236Z,99920.34
2023-02-14T12:08:52.466Z,99919.06
2023-02-14T12:11:19.291Z,99909.78
2023-02-14T12:13:57.176Z,99914.59
2023-02-14T12:16:31.560Z,99912.81
2023-02-14T12:19:13.163Z,99909.03
2023-02-14T12:22:05.023Z,99905.53
2023-02-14T12:24:49.191Z,99895.09
2023-02-14T12:27:20.090Z,99899.78
2023-02-14T12:30:02.069Z,99895.56
2023-02-14T12:32:31.847Z,99896.16
2023-02-14T12:35:04.316Z,99893.91
2023-02-14T12:37:48.743Z,99892.69
2023-02-14T12:40:31.548Z,99892.84
2023-02-14T12:43:24.319Z,99887.66
2023-02-14T12:45:59.752Z,99886.97
2023-02-14T12:48:47.845Z,99888.06
2023-02-14T12:51:29.943Z,99882.75
2023-02-14T12:54:31.759Z,99887.75
2023-02-14T12:57:33.256Z,99886.97
2023-02-14T13:00:15.042Z,99878.13
2023-02-14T13:02:41.766Z,99878.34
2023-02-14T13:05:42.797Z,99884.00
2023-02-14T13:08:27.789Z,99871.59
2023-02-14T13:11:06.465Z,99877.63
2023-02-14T13:13:39.565Z,99868.69
2023-02-14T13:16:18.210Z,99865.22
2023-02-14T13:19:06.364Z,99860.66
2023-02-14T13:21:37.362Z,99865.22
2023-02-14T13:24:15.183Z,99856.28
2023-02-14T13:26:45.156Z,99848.19
2023-02-14T13:29:23.564Z,99845.91
2023-02-14T13:31:56.636Z,99849.22
2023-02-14T13:34:32.848Z,99839.72
2023-02-14T13:37:02.531Z,99838.88
2023-02-14T13:39:38.675Z,99829.38
2023-02-14T13:42:06.631Z,99834.13
2023-02-14T13:44:45.343Z,99837.38
2023-02-14T13:47:18.504Z,99835.06
2023-02-14T13:49:55.356Z,99836.47
2023-02-14T13:52:46.071Z,99832.97
2023-02-14T13:55:20.238Z,99826.41
2023-02-14T13:58:03.706Z,99833.13
2023-02-14T14:00:40.749Z,99831.31
2023-02-14T14:03:13.640Z,99831.44
2023-02-14T14:05:43.668Z,99826.88
2023-02-14T14:08:17.825Z,99820.63
2023-02-14T14:10:45.765Z,99820.38
2023-02-14T14:13:50.774Z,99822.31
2023-02-14T14:16:29.250Z,99825.44
2023-02-14T14:19:04.707Z,99819.72
2023-02-14T14:21:34.303Z,99819.47
2023-02-14T14:24:22.746Z,99820.44
2023-02-14T14:27:02.787Z,99819.19
2023-02-14T14:29:35.482Z,99814.53
2023-02-14T14:32:24.582Z,99813.50
2023-02-14T14:34:53.745Z,99816.22
2023-02-14T14:37:24.213Z,99810.81
2023-02-14T14:39:53.486Z,99819.19
2023-02-14T14:42:21.659Z,99810.47
2023-02-14T14:45:01.756Z,99812.28
2023-02-14T14:47:37.348Z,99812.28
2023-02-14T14:50:10.186Z,99811.06
2023-02-14T14:52:43.735Z,99815.63
2023-02-14T14:55:21.668Z,99806.09
2023-02-14T14:57:54.952Z,99802.81
2023-02-14T15:00:33.361Z,99806.19
2023-02-14T15:03:12.141Z,99808.19
2023-02-14T15:05:41.546Z,99809.28
2023-02-14T15:08:15.245Z,99805.03
2023-02-14T15:10:43.070Z,99806.97
2023-02-14T15:13:32.547Z,99802.69
2023-02-14T15:16:01.809Z,99799.41
2023-02-14T15:18:29.470Z,99806.44
2023-02-14T15:20:56.235Z,99805.09
2023-02-14T15:23:24.798Z,99809.03
2023-02-14T15:25:52.263Z,99804.66
2023-02-14T15:28:35.743Z,99803.69
2023-02-14T15:31:05.294Z,99800.88
2023-02-14T15:33:33.884Z,99811.47
2023-02-14T15:36:08.042Z,99812.81
2023-02-14T15:38:41.717Z,99812.22
2023-02-14T15:41:09.624Z,99808.94
2023-02-14T15:43:37.581Z,99813.53
2023-02-14T15:46:19.590Z,99813.84
2023-02-14T15:48:47.064Z,99806.81
2023-02-14T15:51:24.480Z,99804.28
2023-02-14T15:53:59.450Z,99809.72
2023-02-14T15:56:33.385Z,99805.66
2023-02-14T15:59:17.158Z,99807.56
2023-02-14T16:01:52.535Z,99804.22
2023-02-14T16:04:24.338Z,99799.03
2023-02-14T16:07:22.768Z,99797.47
2023-02-14T16:09:51.289Z,99806.44
2023-02-14T16:12:35.557Z,99803.97
2023-02-14T16:15:16.758Z,99804.22
2023-02-14T16:17:44.049Z,99809.69
2023-02-14T16:20:22.715Z,99807.13
2023-02-14T16:22:50.403Z,99809.06
2023-02-14T16:25:17.066Z,99810.16
2023-02-14T16:27:43.772Z,99807.59
2023-02-14T16:30:19.732Z,99807.75
2023-02-14T16:32:50.704Z,99814.13
2023-02-14T16:35:20.900Z,99813.28
2023-02-14T16:37:50.727Z,99818.63
2023-02-14T16:40:20.970Z,99817.78
2023-02-14T16:42:47.616Z,99820.56
2023-02-14T16:45:16.592Z,99817.31
2023-02-14T16:47:46.172Z,99822.66
2023-02-14T16:50:13.032Z,99819.16
2023-02-14T16:52:41.087Z,99826.31
2023-02-14T16:55:15.561Z,99832.59
2023-02-14T16:57:45.155Z,99838.84
2023-02-14T17:00:12.853Z,99830.94
2023-02-14T17:02:40.044Z,99833.63
2023-02-14T17:05:07.570Z,99830.19
2023-02-14T17:07:34.316Z,99832.88
2023-02-14T17:10:06.225Z,99840.88
2023-02-14T17:12:37.552Z,99846.19
2023-02-14T17:15:10.736Z,99843.59
2023-02-14T17:17:37.693Z,99848.94
2023-02-14T17:20:08.258Z,99840.13
2023-02-14T17:22:36.611Z,99841.03
2023-02-14T17:25:05.312Z,99837.56
2023-02-14T17:27:35.314Z,99845.56
2023-02-14T17:30:02.082Z,99846.50
2023-02-14T17:32:28.897Z,99838.56
2023-02-14T17:34:56.370Z,99853.56
2023-02-14T17:37:23.149Z,99847.44
2023-02-14T17:39:49.840Z,99840.41
2023-02-14T17:42:16.455Z,99840.41
2023-02-14T17:44:43.111Z,99843.97
2023-02-14T17:47:09.723Z,99852.78
2023-02-14T17:49:36.433Z,99844.84
2023-02-14T17:52:03.192Z,99854.53
2023-02-14T17:54:29.810Z,99856.31
2023-02-14T17:56:56.688Z,99853.66
2023-02-14T17:59:24.221Z,99850.13
2023-02-14T18:01:51.235Z,99855.44
2023-02-14T18:04:17.904Z,99851.91
2023-02-14T18:06:44.629Z,99851.91
2023-02-14T18:09:11.256Z,99854.53
2023-02-14T18:11:39.797Z,99858.06
2023-02-14T18:14:06.442Z,99859.69
2023-02-14T18:16:33.228Z,99857.97
2023-02-14T18:19:04.709Z,99854.44
2023-02-14T18:21:36.311Z,99861.47
2023-02-14T18:24:03.962Z,99860.59
2023-02-14T18:26:30.811Z,99851.75
2023-02-14T18:28:57.898Z,99863.16
2023-02-14T18:31:26.317Z,99849.91
2023-02-14T18:33:53.000Z,99856.00
2023-02-14T18:36:24.223Z,99855.06
2023-02-14T18:38:50.908Z,99855.97
2023-02-14T18:41:19.908Z,99855.00
2023-02-14T18:43:48.844Z,99862.06
2023-02-14T18:46:18.350Z,99864.66
2023-02-14T18:48:45.084Z,99858.41
2023-02-14T18:51:15.372Z,99865.31
2023-02-14T18:53:43.443Z,99867.88
2023-02-14T18:56:13.563Z,99861.69
2023-02-14T18:58:42.946Z,99865.19
2023-02-14T19:01:11.640Z,99856.41
2023-02-14T19:03:39.184Z,99860.72
2023-02-14T19:06:06.528Z,99857.19
2023-02-14T19:08:35.021Z,99858.91
2023-02-14T19:11:02.827Z,99860.34
2023-02-14T19:13:32.118Z,99864.88
2023-02-14T19:15:59.757Z,99857.06
2023-02-14T19:18:26.978Z,99854.41
2023-02-14T19:20:53.618Z,99855.31
2023-02-14T19:23:20.227Z,99851.63
2023-02-14T19:25:46.920Z,99850.78
2023-02-14T19:28:13.588Z,99842.00
2023-02-14T19:30:40.322Z,99837.56
2023-02-14T19:33:06.992Z,99850.66
2023-02-14T19:35:33.688Z,99853.38
2023-02-14T19:38:03.357Z,99854.09
2023-02-14T19:40:30.782Z,99846.22
2023-02-14T19:42:57.764Z,99839.91
2023-02-14T19:45:24.486Z,99841.53
2023-02-14T19:47:51.094Z,99832.88
2023-02-14T19:50:20.307Z,99837.06
2023-02-14T19:52:47.135Z,99839.50
2023-02-14T19:55:22.380Z,99833.47
2023-02-14T19:57:49.250Z,99829.97
2023-02-14T20:00:16.601Z,99826.38
2023-02-14T20:02:47.909Z,99837.78
2023-02-14T20:05:18.612Z,99831.63
2023-02-14T20:07:49.032Z,99832.34
2023-02-14T20:10:16.022Z,99828.78
2023-02-14T20:12:42.671Z,99826.84
2023-02-14T20:15:10.972Z,99826.38
2023-02-14T20:17:43.739Z,99826.47
2023-02-14T20:23:20.647Z,99817.41
2023-02-14T20:25:47.375Z,99826.16
2023-02-14T20:28:14.109Z,99827.75
2023-02-14T20:30:40.748Z,99819.88
2023-02-14T20:33:07.410Z,99813.59
2023-02-14T20:35:38.038Z,99818.34
2023-02-14T20:38:07.774Z,99822.44
2023-02-14T20:40:39.278Z,99820.75
2023-02-14T20:43:06.262Z,99814.38
2023-02-14T20:45:33.102Z,99813.44
2023-02-14T20:48:03.992Z,99804.78
2023-02-14T20:50:31.253Z,99804.22
2023-02-14T20:52:58.309Z,99804.50
2023-02-14T20:55:27.054Z,99805.34
2023-02-14T20:57:54.206Z,99797.50
2023-02-14T21:00:21.129Z,99800.41
2023-02-14T21:02:47.833Z,99801.22
2023-02-14T21:05:18.361Z,99800.22
2023-02-14T21:07:45.077Z,99795.88
2023-02-14T21:10:11.864Z,99795.03
2023-02-14T21:12:38.661Z,99790.66
2023-02-14T21:15:06.985Z,99798.34
2023-02-14T21:17:33.956Z,99796.63
2023-02-14T21:20:00.725Z,99797.88
2023-02-14T21:22:27.445Z,99794.91
2023-02-14T21:24:54.084Z,99788.66
2023-02-14T21:27:20.772Z,99795.47
2023-02-14T21:29:47.522Z,99789.56
2023-02-14T21:32:14.801Z,99794.44
2023-02-14T21:34:41.530Z,99798.41
2023-02-14T21:37:08.165Z,99788.03
2023-02-14T21:39:37.850Z,99781.88
2023-02-14T21:42:07.468Z,99785.44
2023-02-14T21:44:53.607Z,99782.50
2023-02-14T21:47:20.239Z,99772.09
2023-02-14T21:50:05.522Z,99783.34
2023-02-14T21:52:32.198Z,99773.09
2023-02-14T21:54:58.845Z,99780.13
2023-02-14T21:57:25.998Z,99778.06
2023-02-14T21:59:52.702Z,99772.03
2023-02-14T22:02:19.362Z,99768.50
2023-02-14T22:04:46.314Z,99771.22
2023-02-14T22:07:13.100Z,99768.34
2023-02-14T22:09:39.807Z,99766.59
2023-02-14T22:12:06.754Z,99762.34
2023-02-14T22:14:33.431Z,99762.41
2023-02-14T22:17:00.072Z,99770.00
2023-02-14T22:19:26.828Z,99773.28
2023-02-14T22:21:53.482Z,99770.00
2023-02-14T22:24:20.183Z,99765.09
2023-02-14T22:26:46.826Z,99771.31
2023-02-14T22:29:13.492Z,99758.75
2023-02-14T22:31:42.496Z,99760.56
2023-02-14T22:34:11.319Z,99758.81
2023-02-14T22:36:38.088Z,99756.13
2023-02-14T22:39:05.838Z,99753.25
2023-02-14T22:41:37.560Z,99741.06
2023-02-14T22:44:04.744Z,99756.59
2023-02-14T22:46:31.667Z,99745.00
2023-02-14T22:48:58.658Z,99747.91
2023-02-14T22:51:25.254Z,99741.72
2023-02-14T22:53:54.422Z,99742.09
2023-02-14T22:56:30.888Z,99735.13
2023-02-14T22:58:59.713Z,99742.38
2023-02-14T23:01:26.887Z,99740.66
2023-02-14T23:03:55.555Z,99745.06
2023-02-14T23:06:26.869Z,99741.25
2023-02-14T23:08:53.857Z,99743.16
2023-02-14T23:11:26.917Z,99742.50
2023-02-14T23:14:12.660Z,99750.59
2023-02-14T23:16:57.967Z,99756.78
2023-02-14T23:19:47.293Z,99747.25
2023-02-14T23:22:19.363Z,99743.41
2023-02-14T23:24:47.844Z,99747.03
2023-02-14T23:27:15.462Z,99748.53
2023-02-14T23:29:42.157Z,99752.78
2023-02-14T23:32:09.437Z,99737.88
2023-02-14T23:34:38.980Z,99745.72
2023-02-14T23:37:06.236Z,99748.50
2023-02-14T23:39:35.725Z,99740.59
2023-02-14T23:42:06.804Z,99748.75
2023-02-14T23:44:34.120Z,99744.50
2023-02-14T23:47:04.285Z,99736.72
2023-02-14T23:49:33.068Z,99735.94
2023-02-14T23:52:00.217Z,99740.97
2023-02-14T23:54:26.967Z,99731.19
2023-02-14T23:56:54.840Z,99733.75
2023-02-14T23:59:22.151Z,99734.59
